Observation data for Abernathy on 01/09/2018      Previous  Date  Next       Current Mesonet Observations  Soil Data  Daily Summary Page  Observations in Plain Language
KARS 090600Z 19007KT 07/M03 A3012 RMK A01 T00701026  RH  051%=      5-min Rain = 0
KARS 090605Z 19006KT 07/M03 A3012 RMK A01 T00681027  RH  051%=      5-min Rain = 0
KARS 090610Z 19006KT 06/M03 A3012 RMK A01 T00641028  RH  052%=      5-min Rain = 0
KARS 090615Z 19006KT 06/M03 A3012 RMK A01 T00591029  RH  053%=      5-min Rain = 0
KARS 090620Z 19006KT 06/M03 A3012 RMK A01 T00551030  RH  055%=      5-min Rain = 0
KARS 090625Z 20006KT 05/M03 A3012 RMK A01 T00511030  RH  056%=      5-min Rain = 0
KARS 090630Z 20006KT 05/M03 A3012 RMK A01 T00481031  RH  057%=      5-min Rain = 0
KARS 090635Z 20006KT 04/M03 A3011 RMK A01 T00441032  RH  058%=      5-min Rain = 0
KARS 090640Z 20006KT 04/M03 A3011 RMK A01 T00411032  RH  059%=      5-min Rain = 0
KARS 090645Z 20006KT 04/M03 A3011 RMK A01 T00391032  RH  060%=      5-min Rain = 0
KARS 090650Z 19006KT 04/M03 A3011 RMK A01 T00391031  RH  061%=      5-min Rain = 0
KARS 090655Z 18006KT 04/M03 A3011 RMK A01 T00381032  RH  061%=      5-min Rain = 0
KARS 090700Z 19006KT 04/M03 A3011 RMK A01 T00381032  RH  061%=      5-min Rain = 0
KARS 090705Z 19006KT 04/M03 A301 RMK A01 T00391031  RH  061%=      5-min Rain = 0
KARS 090710Z 19007KT 04/M03 A301 RMK A01 T00411030  RH  060%=      5-min Rain = 0
KARS 090715Z 18005KT 04/M03 A301 RMK A01 T00411030  RH  060%=      5-min Rain = 0
KARS 090720Z 18005KT 04/M03 A301 RMK A01 T00401031  RH  060%=      5-min Rain = 0
KARS 090725Z 18005KT 04/M03 A3009 RMK A01 T00411031  RH  060%=      5-min Rain = 0
KARS 090730Z 18005KT 04/M03 A3009 RMK A01 T00421030  RH  059%=      5-min Rain = 0
KARS 090735Z 18006KT 04/M03 A3009 RMK A01 T00431030  RH  059%=      5-min Rain = 0
KARS 090740Z 18006KT 04/M03 A3008 RMK A01 T00441030  RH  059%=      5-min Rain = 0
KARS 090745Z 18006KT 04/M03 A3008 RMK A01 T00441030  RH  059%=      5-min Rain = 0
KARS 090750Z 18006KT 05/M03 A3008 RMK A01 T00451029  RH  059%=      5-min Rain = 0
KARS 090755Z 18006KT 05/M03 A3008 RMK A01 T00451030  RH  059%=      5-min Rain = 0
KARS 090800Z 19005KT 04/M03 A3008 RMK A01 T00441030  RH  059%=      5-min Rain = 0
KARS 090805Z 19005KT 04/M03 A3008 RMK A01 T00431030  RH  060%=      5-min Rain = 0
KARS 090810Z 20006KT 04/M03 A3008 RMK A01 T00441028  RH  060%=      5-min Rain = 0
KARS 090815Z 20006KT 05/M03 A3008 RMK A01 T00481027  RH  059%=      5-min Rain = 0
KARS 090820Z 20007KT 05/M03 A3008 RMK A01 T00531025  RH  058%=      5-min Rain = 0
KARS 090825Z 21007KT 06/M03 A3008 RMK A01 T00561025  RH  056%=      5-min Rain = 0
KARS 090830Z 21008KT 06/M03 A3008 RMK A01 T00561027  RH  055%=      5-min Rain = 0
KARS 090835Z 21008KT 06/M03 A3008 RMK A01 T00571026  RH  055%=      5-min Rain = 0
KARS 090840Z 20009KT 06/M02 A3007 RMK A01 T00601024  RH  055%=      5-min Rain = 0
KARS 090845Z 19009KT 06/M02 A3007 RMK A01 T00631024  RH  054%=      5-min Rain = 0
KARS 090850Z 19009KT 07/M02 A3006 RMK A01 T00661024  RH  053%=      5-min Rain = 0
KARS 090855Z 19009KT 07/M03 A3006 RMK A01 T00681025  RH  052%=      5-min Rain = 0
KARS 090900Z 19009KT 07/M03 A3005 RMK A01 T00671025  RH  052%=      5-min Rain = 0
KARS 090905Z 20008KT 07/M03 A3006 RMK A01 T00661025  RH  053%=      5-min Rain = 0
KARS 090910Z 20007KT 06/M03 A3006 RMK A01 T00631025  RH  053%=      5-min Rain = 0
KARS 090915Z 20006KT 06/M02 A3006 RMK A01 T00611024  RH  055%=      5-min Rain = 0
KARS 090920Z 21006KT 06/M02 A3006 RMK A01 T00581024  RH  056%=      5-min Rain = 0
KARS 090925Z 21006KT 06/M03 A3006 RMK A01 T00551025  RH  057%=      5-min Rain = 0
KARS 090930Z 21006KT 05/M03 A3006 RMK A01 T00531026  RH  057%=      5-min Rain = 0
KARS 090935Z 21007KT 05/M03 A3006 RMK A01 T00511026  RH  058%=      5-min Rain = 0
KARS 090940Z 21006KT 05/M03 A3006 RMK A01 T00501026  RH  058%=      5-min Rain = 0
KARS 090945Z 21007KT 05/M03 A3006 RMK A01 T00491025  RH  059%=      5-min Rain = 0
KARS 090950Z 21006KT 05/M03 A3006 RMK A01 T00521025  RH  058%=      5-min Rain = 0
KARS 090955Z 21005KT 05/M03 A3006 RMK A01 T00531025  RH  058%=      5-min Rain = 0
KARS 091000Z 23006KT 05/M02 A3006 RMK A01 T00541024  RH  058%=      5-min Rain = 0
KARS 091005Z 24005KT 06/M02 A3006 RMK A01 T00581024  RH  056%=      5-min Rain = 0
KARS 091010Z 24004KT 06/M02 A3006 RMK A01 T00591024  RH  056%=      5-min Rain = 0
KARS 091015Z 24005KT 06/M02 A3005 RMK A01 T00611024  RH  055%=      5-min Rain = 0
KARS 091020Z 24004KT 06/M03 A3005 RMK A01 T00621025  RH  054%=      5-min Rain = 0
KARS 091025Z 26004KT 06/M03 A3005 RMK A01 T00591026  RH  055%=      5-min Rain = 0
KARS 091030Z 25005KT 06/M03 A3005 RMK A01 T00551026  RH  056%=      5-min Rain = 0
KARS 091035Z 25005KT 05/M03 A3005 RMK A01 T00521026  RH  057%=      5-min Rain = 0
KARS 091040Z 25006KT 05/M03 A3004 RMK A01 T00511026  RH  058%=      5-min Rain = 0
KARS 091045Z 24007KT 05/M03 A3005 RMK A01 T00521025  RH  058%=      5-min Rain = 0
KARS 091050Z 24007KT 06/M03 A3005 RMK A01 T00551025  RH  057%=      5-min Rain = 0
KARS 091055Z 23007KT 06/M03 A3005 RMK A01 T00571025  RH  056%=      5-min Rain = 0
KARS 091100Z 23007KT 06/M03 A3005 RMK A01 T00591025  RH  055%=      5-min Rain = 0
KARS 091105Z 23007KT 06/M03 A3005 RMK A01 T00601025  RH  055%=      5-min Rain = 0
KARS 091110Z 23006KT 06/M03 A3004 RMK A01 T00601026  RH  055%=      5-min Rain = 0
KARS 091115Z 23007KT 06/M03 A3004 RMK A01 T00571026  RH  056%=      5-min Rain = 0
KARS 091120Z 22008KT 06/M03 A3004 RMK A01 T00571026  RH  056%=      5-min Rain = 0
KARS 091125Z 22008KT 06/M03 A3003 RMK A01 T00591026  RH  055%=      5-min Rain = 0
KARS 091130Z 21007KT 06/M03 A3003 RMK A01 T00581026  RH  055%=      5-min Rain = 0
KARS 091135Z 20006KT 06/M03 A3003 RMK A01 T00561025  RH  056%=      5-min Rain = 0
KARS 091140Z 19006KT 05/M02 A3003 RMK A01 T00541024  RH  057%=      5-min Rain = 0
KARS 091145Z 19006KT 05/M03 A3003 RMK A01 T00541025  RH  057%=      5-min Rain = 0
KARS 091150Z 21006KT 05/M02 A3003 RMK A01 T00531024  RH  058%=      5-min Rain = 0
KARS 091155Z 23005KT 05/M03 A3003 RMK A01 T00531025  RH  058%=      5-min Rain = 0
KARS 091200Z 23006KT 05/M03 A3003 RMK A01 T00531026  RH  057%=      5-min Rain = 0
KARS 091205Z 24007KT 06/M03 A3004 RMK A01 T00551026  RH  056%=      5-min Rain = 0
KARS 091210Z 24008KT 06/M03 A3004 RMK A01 T00561026  RH  056%=      5-min Rain = 0
KARS 091215Z 23009KT 06/M03 A3004 RMK A01 T00561026  RH  056%=      5-min Rain = 0
KARS 091220Z 23010KT 06/M03 A3004 RMK A01 T00561027  RH  056%=      5-min Rain = 0
KARS 091225Z 22009KT 06/M03 A3003 RMK A01 T00551027  RH  056%=      5-min Rain = 0
KARS 091230Z 22008KT 05/M03 A3003 RMK A01 T00531028  RH  056%=      5-min Rain = 0
KARS 091235Z 23007KT 05/M03 A3004 RMK A01 T00491028  RH  058%=      5-min Rain = 0
KARS 091240Z 24008KT 05/M03 A3004 RMK A01 T00471029  RH  058%=      5-min Rain = 0
KARS 091245Z 23009KT 05/M03 A3004 RMK A01 T00451029  RH  059%=      5-min Rain = 0
KARS 091250Z 23009KT 04/M03 A3004 RMK A01 T00431030  RH  059%=      5-min Rain = 0
KARS 091255Z 23010KT 04/M03 A3004 RMK A01 T00411030  RH  060%=      5-min Rain = 0
KARS 091300Z 23009KT 04/M03 A3004 RMK A01 T00401031  RH  060%=      5-min Rain = 0
KARS 091305Z 23008KT 04/M03 A3004 RMK A01 T00371032  RH  061%=      5-min Rain = 0
KARS 091310Z 23009KT 03/M03 A3004 RMK A01 T00341032  RH  062%=      5-min Rain = 0
KARS 091315Z 22008KT 03/M03 A3004 RMK A01 T00331032  RH  063%=      5-min Rain = 0
KARS 091320Z 22008KT 03/M03 A3004 RMK A01 T00311033  RH  063%=      5-min Rain = 0
KARS 091325Z 22008KT 03/M03 A3004 RMK A01 T00291033  RH  064%=      5-min Rain = 0
KARS 091330Z 20008KT 03/M03 A3004 RMK A01 T00271033  RH  065%=      5-min Rain = 0
KARS 091335Z 20008KT 02/M03 A3004 RMK A01 T00241033  RH  067%=      5-min Rain = 0
KARS 091340Z 20007KT 02/M03 A3004 RMK A01 T00221032  RH  068%=      5-min Rain = 0
KARS 091345Z 20007KT 02/M03 A3004 RMK A01 T00191034  RH  068%=      5-min Rain = 0
KARS 091350Z 19009KT 02/M03 A3003 RMK A01 T00171034  RH  069%=      5-min Rain = 0
KARS 091355Z 19008KT 02/M04 A3003 RMK A01 T00151036  RH  069%=      5-min Rain = 0
KARS 091400Z 19008KT 01/M04 A3003 RMK A01 T00131036  RH  070%=      5-min Rain = 0
KARS 091405Z 19009KT 01/M04 A3003 RMK A01 T00121036  RH  071%=      5-min Rain = 0
KARS 091410Z 20009KT 01/M03 A3003 RMK A01 T00141034  RH  071%=      5-min Rain = 0
KARS 091415Z 20009KT 02/M03 A3003 RMK A01 T00161034  RH  070%=      5-min Rain = 0
KARS 091420Z 20008KT 02/M03 A3003 RMK A01 T00161033  RH  070%=      5-min Rain = 0
KARS 091425Z 20008KT 02/M03 A3003 RMK A01 T00181032  RH  070%=      5-min Rain = 0
KARS 091430Z 20008KT 02/M03 A3003 RMK A01 T00231030  RH  068%=      5-min Rain = 0
KARS 091435Z 20009KT 03/M03 A3003 RMK A01 T00281029  RH  066%=      5-min Rain = 0
KARS 091440Z 21009KT 03/M03 A3003 RMK A01 T00341028  RH  064%=      5-min Rain = 0
KARS 091445Z 22008KT 04/M03 A3003 RMK A01 T00411027  RH  062%=      5-min Rain = 0
KARS 091450Z 22008KT 05/M03 A3003 RMK A01 T00491026  RH  059%=      5-min Rain = 0
KARS 091455Z 22009KT 06/M03 A3003 RMK A01 T00551027  RH  056%=      5-min Rain = 0
KARS 091500Z 21010KT 06/M03 A3003 RMK A01 T00591026  RH  055%=      5-min Rain = 0
KARS 091505Z 21010KT 06/M03 A3003 RMK A01 T00621026  RH  054%=      5-min Rain = 0
KARS 091510Z 22012KT 07/M03 A3003 RMK A01 T00651026  RH  053%=      5-min Rain = 0
KARS 091515Z 22012KT 07/M03 A3003 RMK A01 T00681025  RH  052%=      5-min Rain = 0
KARS 091520Z 22013KT 07/M03 A3003 RMK A01 T00721025  RH  050%=      5-min Rain = 0
KARS 091525Z 22012KT 08/M03 A3004 RMK A01 T00751025  RH  049%=      5-min Rain = 0
KARS 091530Z 22009KT 08/M02 A3004 RMK A01 T00801023  RH  049%=      5-min Rain = 0
KARS 091535Z 22011KT 09/M02 A3004 RMK A01 T00851023  RH  047%=      5-min Rain = 0
KARS 091540Z 22011KT 09/M02 A3004 RMK A01 T00881022  RH  046%=      5-min Rain = 0
KARS 091545Z 22011KT 09/M02 A3004 RMK A01 T00921021  RH  045%=      5-min Rain = 0
KARS 091550Z 23013G18KT 09/M02 A3004 RMK A01 T00941022  RH  045%=      5-min Rain = 0
KARS 091555Z 22012KT 10/M02 A3004 RMK A01 T00971021  RH  044%=      5-min Rain = 0
KARS 091600Z 22013KT 10/M02 A3004 RMK A01 T00991020  RH  043%=      5-min Rain = 0
KARS 091605Z 22012KT 10/M02 A3004 RMK A01 T01041019  RH  043%=      5-min Rain = 0
KARS 091610Z 22013KT 11/M02 A3004 RMK A01 T01081019  RH  041%=      5-min Rain = 0
KARS 091615Z 22013KT 11/M02 A3004 RMK A01 T01111018  RH  041%=      5-min Rain = 0
KARS 091620Z 22011KT 12/M02 A3004 RMK A01 T01151017  RH  040%=      5-min Rain = 0
KARS 091625Z 22011KT 12/M02 A3004 RMK A01 T01191017  RH  039%=      5-min Rain = 0
KARS 091630Z 23012KT 12/M02 A3004 RMK A01 T01221016  RH  039%=      5-min Rain = 0
KARS 091635Z 22011KT 13/M02 A3003 RMK A01 T01261015  RH  038%=      5-min Rain = 0
KARS 091640Z 22012KT 13/M02 A3003 RMK A01 T01291015  RH  037%=      5-min Rain = 0
KARS 091645Z 22012KT 13/M02 A3003 RMK A01 T01291015  RH  037%=      5-min Rain = 0
KARS 091650Z 22011KT 13/M01 A3003 RMK A01 T01301014  RH  037%=      5-min Rain = 0
KARS 091655Z 22012KT 13/M01 A3002 RMK A01 T01341014  RH  036%=      5-min Rain = 0
KARS 091700Z 21011KT 14/M01 A3002 RMK A01 T01371012  RH  036%=      5-min Rain = 0
KARS 091705Z 21012KT 14/M01 A3002 RMK A01 T01441011  RH  035%=      5-min Rain = 0
KARS 091710Z 22013KT 15/M01 A3002 RMK A01 T01491011  RH  034%=      5-min Rain = 0
KARS 091715Z 23012KT 15/M01 A3002 RMK A01 T01531010  RH  033%=      5-min Rain = 0
KARS 091720Z 22013KT 16/M01 A3001 RMK A01 T01551009  RH  033%=      5-min Rain = 0
KARS 091725Z 22012KT 16/M01 A3001 RMK A01 T01601008  RH  032%=      5-min Rain = 0
KARS 091730Z 22012KT 17/M01 A3001 RMK A01 T01651007  RH  031%=      5-min Rain = 0
KARS 091735Z 21012KT 17/M01 A30 RMK A01 T01661007  RH  031%=      5-min Rain = 0
KARS 091740Z 21013KT 17/M01 A30 RMK A01 T01691007  RH  030%=      5-min Rain = 0
KARS 091745Z 22013G18KT 17/M01 A30 RMK A01 T01721007  RH  030%=      5-min Rain = 0
KARS 091750Z 22012G17KT 17/M01 A2999 RMK A01 T01741007  RH  029%=      5-min Rain = 0
KARS 091755Z 21014KT 18/M01 A2999 RMK A01 T01791007  RH  029%=      5-min Rain = 0
KARS 091800Z 21012KT 18/M01 A2999 RMK A01 T01821006  RH  028%=      5-min Rain = 0
KARS 091805Z 22014KT 19/M01 A2999 RMK A01 T01851007  RH  028%=      5-min Rain = 0
KARS 091810Z 23013G19KT 19/M01 A2998 RMK A01 T01871006  RH  027%=      5-min Rain = 0
KARS 091815Z 23015KT 19/M01 A2998 RMK A01 T01891008  RH  027%=      5-min Rain = 0
KARS 091820Z 23014KT 19/M01 A2997 RMK A01 T01891007  RH  027%=      5-min Rain = 0
KARS 091825Z 23013KT 19/M01 A2997 RMK A01 T01911008  RH  026%=      5-min Rain = 0
KARS 091830Z 23014KT 19/M01 A2996 RMK A01 T01941007  RH  026%=      5-min Rain = 0
KARS 091835Z 23013KT 20/M01 A2996 RMK A01 T01951007  RH  026%=      5-min Rain = 0
KARS 091840Z 23012G17KT 20/M01 A2995 RMK A01 T02021007  RH  025%=      5-min Rain = 0
KARS 091845Z 23013G18KT 21/M01 A2995 RMK A01 T02061009  RH  024%=      5-min Rain = 0
KARS 091850Z 24015KT 21/M01 A2995 RMK A01 T02091013  RH  023%=      5-min Rain = 0
KARS 091855Z 24015G20KT 21/M01 A2994 RMK A01 T02091012  RH  023%=      5-min Rain = 0
KARS 091900Z 24015KT 21/M01 A2994 RMK A01 T02131012  RH  022%=      5-min Rain = 0
KARS 091905Z 25012G19KT 21/M01 A2994 RMK A01 T02121012  RH  023%=      5-min Rain = 0
KARS 091910Z 24015G20KT 22/M01 A2993 RMK A01 T02151014  RH  022%=      5-min Rain = 0
KARS 091915Z 24015KT 22/M02 A2993 RMK A01 T02181016  RH  021%=      5-min Rain = 0
KARS 091920Z 25016G22KT 22/M02 A2992 RMK A01 T02211021  RH  020%=      5-min Rain = 0
KARS 091925Z 26016KT 22/M02 A2992 RMK A01 T02201021  RH  020%=      5-min Rain = 0
KARS 091930Z 25014G20KT 23/M02 A2992 RMK A01 T02261017  RH  020%=      5-min Rain = 0
KARS 091935Z 25014G20KT 23/M02 A2991 RMK A01 T02291021  RH  019%=      5-min Rain = 0
KARS 091940Z 25016KT 23/M02 A2991 RMK A01 T02301024  RH  018%=      5-min Rain = 0
KARS 091945Z 25016KT 23/M02 A2991 RMK A01 T02311024  RH  018%=      5-min Rain = 0
KARS 091950Z 25016KT 23/M02 A299 RMK A01 T02341024  RH  018%=      5-min Rain = 0
KARS 091955Z 25016G21KT 24/M03 A299 RMK A01 T02351025  RH  018%=      5-min Rain = 0
KARS 092000Z 25015G21KT 24/M03 A299 RMK A01 T02351025  RH  018%=      5-min Rain = 0
KARS 092005Z 24016G21KT 24/M03 A299 RMK A01 T02351025  RH  018%=      5-min Rain = 0
KARS 092010Z 25016G22KT 24/M02 A2989 RMK A01 T02391024  RH  018%=      5-min Rain = 0
KARS 092015Z 25015G20KT 24/M02 A2989 RMK A01 T02381024  RH  018%=      5-min Rain = 0
KARS 092020Z 25013KT 24/M02 A2989 RMK A01 T02381024  RH  018%=      5-min Rain = 0
KARS 092025Z 24014KT 24/M02 A2989 RMK A01 T02411023  RH  017%=      5-min Rain = 0
KARS 092030Z 24014G19KT 24/M02 A2988 RMK A01 T02421023  RH  017%=      5-min Rain = 0
KARS 092035Z 24014G21KT 24/M02 A2988 RMK A01 T02431023  RH  017%=      5-min Rain = 0
KARS 092040Z 24012G20KT 25/M02 A2988 RMK A01 T02451022  RH  017%=      5-min Rain = 0
KARS 092045Z 25014KT 25/M02 A2988 RMK A01 T02491020  RH  017%=      5-min Rain = 0
KARS 092050Z 25013G19KT 25/M02 A2988 RMK A01 T02511022  RH  017%=      5-min Rain = 0
KARS 092055Z 26014KT 25/M02 A2988 RMK A01 T02501020  RH  017%=      5-min Rain = 0
KARS 092100Z 25015G20KT 25/M02 A2988 RMK A01 T02511022  RH  016%=      5-min Rain = 0
KARS 092105Z 25015KT 25/M02 A2988 RMK A01 T02491024  RH  016%=      5-min Rain = 0
KARS 092110Z 26016G22KT 25/M03 A2988 RMK A01 T02501025  RH  016%=      5-min Rain = 0
KARS 092115Z 27015KT 25/M03 A2988 RMK A01 T02511027  RH  016%=      5-min Rain = 0
KARS 092120Z 26016G22KT 25/M03 A2988 RMK A01 T02511028  RH  016%=      5-min Rain = 0
KARS 092125Z 25012G17KT 25/M03 A2988 RMK A01 T02521027  RH  016%=      5-min Rain = 0
KARS 092130Z 26014KT 25/M03 A2988 RMK A01 T02531029  RH  015%=      5-min Rain = 0
KARS 092135Z 25013G18KT 25/M03 A2987 RMK A01 T02531030  RH  015%=      5-min Rain = 0
KARS 092140Z 25013G18KT 25/M03 A2987 RMK A01 T02541032  RH  015%=      5-min Rain = 0
KARS 092145Z 25014G20KT 25/M03 A2987 RMK A01 T02531032  RH  015%=      5-min Rain = 0
KARS 092150Z 26013G19KT 25/M03 A2987 RMK A01 T02531031  RH  015%=      5-min Rain = 0
KARS 092155Z 27012G18KT 25/M03 A2987 RMK A01 T02521032  RH  015%=      5-min Rain = 0
KARS 092200Z 27013G18KT 25/M03 A2987 RMK A01 T02501031  RH  015%=      5-min Rain = 0
KARS 092205Z 27014KT 25/M03 A2987 RMK A01 T02501030  RH  016%=      5-min Rain = 0
KARS 092210Z 26014KT 25/M03 A2988 RMK A01 T02501029  RH  016%=      5-min Rain = 0
KARS 092215Z 24010KT 25/M04 A2988 RMK A01 T02501035  RH  015%=      5-min Rain = 0
KARS 092220Z 26014G21KT 25/M03 A2988 RMK A01 T02491032  RH  015%=      5-min Rain = 0
KARS 092225Z 24011KT 25/M04 A2988 RMK A01 T02501037  RH  015%=      5-min Rain = 0
KARS 092230Z 26011KT 25/M03 A2988 RMK A01 T02491029  RH  016%=      5-min Rain = 0
KARS 092235Z 26013KT 25/M03 A2988 RMK A01 T02481027  RH  016%=      5-min Rain = 0
KARS 092240Z 26013KT 25/M03 A2988 RMK A01 T02471028  RH  016%=      5-min Rain = 0
KARS 092245Z 24010KT 25/M04 A2988 RMK A01 T02461039  RH  015%=      5-min Rain = 0
KARS 092250Z 26009G14KT 25/M03 A2988 RMK A01 T02451031  RH  016%=      5-min Rain = 0
KARS 092255Z 24010KT 24/M03 A2988 RMK A01 T02431032  RH  016%=      5-min Rain = 0
KARS 092300Z 24009KT 24/M04 A2988 RMK A01 T02411039  RH  015%=      5-min Rain = 0
KARS 092305Z 25007KT 24/M04 A2988 RMK A01 T02391037  RH  016%=      5-min Rain = 0
KARS 092310Z 26007KT 24/M03 A2987 RMK A01 T02361025  RH  018%=      5-min Rain = 0
KARS 092315Z 26008KT 23/M02 A2987 RMK A01 T02321024  RH  018%=      5-min Rain = 0
KARS 092320Z 25009KT 23/M03 A2987 RMK A01 T02311025  RH  018%=      5-min Rain = 0
KARS 092325Z 24008KT 23/M03 A2987 RMK A01 T02281027  RH  018%=      5-min Rain = 0
KARS 092330Z 24008KT 22/M03 A2988 RMK A01 T02231027  RH  019%=      5-min Rain = 0
KARS 092335Z 24008KT 22/M03 A2988 RMK A01 T02191025  RH  020%=      5-min Rain = 0
KARS 092340Z 23007KT 21/M03 A2988 RMK A01 T02101026  RH  021%=      5-min Rain = 0
KARS 092345Z 22009KT 20/M03 A2988 RMK A01 T01991032  RH  021%=      5-min Rain = 0
KARS 092350Z 22011KT 20/M05 A2988 RMK A01 T01981047  RH  019%=      5-min Rain = 0
KARS 092355Z 22010KT 20/M05 A2988 RMK A01 T02041052  RH  017%=      5-min Rain = 0
KARS 100000Z 22009KT 20/M05 A2988 RMK A01 T01971051  RH  018%=      5-min Rain = 0
KARS 100005Z 22009KT 19/M05 A2988 RMK A01 T01871051  RH  020%=      5-min Rain = 0
KARS 100010Z 22009KT 18/M05 A2988 RMK A01 T01801051  RH  020%=      5-min Rain = 0
KARS 100015Z 22009KT 18/M05 A2988 RMK A01 T01791051  RH  021%=      5-min Rain = 0
KARS 100020Z 22009KT 17/M05 A2988 RMK A01 T01731052  RH  021%=      5-min Rain = 0
KARS 100025Z 22008KT 17/M05 A2988 RMK A01 T01681052  RH  022%=      5-min Rain = 0
KARS 100030Z 22008KT 16/M05 A2988 RMK A01 T01611053  RH  023%=      5-min Rain = 0
KARS 100035Z 21008KT 16/M05 A2988 RMK A01 T01551053  RH  023%=      5-min Rain = 0
KARS 100040Z 21008KT 15/M05 A2988 RMK A01 T01481053  RH  025%=      5-min Rain = 0
KARS 100045Z 21008KT 14/M05 A2988 RMK A01 T01411053  RH  026%=      5-min Rain = 0
KARS 100050Z 20009KT 13/M05 A2988 RMK A01 T01341054  RH  027%=      5-min Rain = 0
KARS 100055Z 20008KT 13/M06 A2988 RMK A01 T01271055  RH  028%=      5-min Rain = 0
KARS 100100Z 20008KT 13/M06 A2988 RMK A01 T01251055  RH  028%=      5-min Rain = 0
KARS 100105Z 19007KT 12/M06 A2988 RMK A01 T01231056  RH  028%=      5-min Rain = 0
KARS 100110Z 19007KT 12/M05 A2988 RMK A01 T01211054  RH  029%=      5-min Rain = 0
KARS 100115Z 20007KT 12/M05 A2988 RMK A01 T01181052  RH  030%=      5-min Rain = 0
KARS 100120Z 20006KT 12/M05 A2988 RMK A01 T01181052  RH  030%=      5-min Rain = 0
KARS 100125Z 20006KT 12/M05 A2988 RMK A01 T01151054  RH  030%=      5-min Rain = 0
KARS 100130Z 20007KT 11/M06 A2988 RMK A01 T01121057  RH  030%=      5-min Rain = 0
KARS 100135Z 19006KT 11/M06 A2988 RMK A01 T01101057  RH  031%=      5-min Rain = 0
KARS 100140Z 18005KT 11/M06 A2988 RMK A01 T01071058  RH  031%=      5-min Rain = 0
KARS 100145Z 19006KT 10/M06 A2988 RMK A01 T01041057  RH  032%=      5-min Rain = 0
KARS 100150Z 20006KT 11/M06 A2988 RMK A01 T01101055  RH  031%=      5-min Rain = 0
KARS 100155Z 19005KT 11/M06 A2988 RMK A01 T01121055  RH  031%=      5-min Rain = 0
KARS 100200Z 18005KT 11/M06 A2988 RMK A01 T01081056  RH  031%=      5-min Rain = 0
KARS 100205Z 19005KT 10/M06 A2988 RMK A01 T01041055  RH  032%=      5-min Rain = 0
KARS 100210Z 20006KT 10/M05 A2988 RMK A01 T01021053  RH  033%=      5-min Rain = 0
KARS 100215Z 20006KT 10/M05 A2988 RMK A01 T01021053  RH  033%=      5-min Rain = 0
KARS 100220Z 21006KT 10/M05 A2988 RMK A01 T01001054  RH  033%=      5-min Rain = 0
KARS 100225Z 21005KT 10/M05 A2988 RMK A01 T01001054  RH  033%=      5-min Rain = 0
KARS 100230Z 21006KT 10/M05 A2988 RMK A01 T01041053  RH  033%=      5-min Rain = 0
KARS 100235Z 21008KT 10/M05 A2988 RMK A01 T01031050  RH  034%=      5-min Rain = 0
KARS 100240Z 21009KT 10/M04 A2988 RMK A01 T00991042  RH  037%=      5-min Rain = 0
KARS 100245Z 21008KT 10/M03 A2987 RMK A01 T00991033  RH  039%=      5-min Rain = 0
KARS 100250Z 21008KT 10/M03 A2987 RMK A01 T01021028  RH  040%=      5-min Rain = 0
KARS 100255Z 21008KT 10/M03 A2987 RMK A01 T01021025  RH  041%=      5-min Rain = 0
KARS 100300Z 22009KT 11/M02 A2987 RMK A01 T01051019  RH  042%=      5-min Rain = 0
KARS 100305Z 21008KT 11/M01 A2987 RMK A01 T01131014  RH  042%=      5-min Rain = 0
KARS 100310Z 22009KT 12/M01 A2987 RMK A01 T01171013  RH  041%=      5-min Rain = 0
KARS 100315Z 22009KT 12/M01 A2987 RMK A01 T01171014  RH  041%=      5-min Rain = 0
KARS 100320Z 22009KT 11/M02 A2987 RMK A01 T01141015  RH  041%=      5-min Rain = 0
KARS 100325Z 22010KT 11/M02 A2987 RMK A01 T01141016  RH  041%=      5-min Rain = 0
KARS 100330Z 23011KT 12/M02 A2987 RMK A01 T01151015  RH  041%=      5-min Rain = 0
KARS 100335Z 23011KT 12/M01 A2987 RMK A01 T01191012  RH  041%=      5-min Rain = 0
KARS 100340Z 22010KT 12/M01 A2987 RMK A01 T01201011  RH  041%=      5-min Rain = 0
KARS 100345Z 22010KT 12/M01 A2987 RMK A01 T01151011  RH  042%=      5-min Rain = 0
KARS 100350Z 22009KT 11/M01 A2987 RMK A01 T01101011  RH  043%=      5-min Rain = 0
KARS 100355Z 22009KT 11/M01 A2987 RMK A01 T01081010  RH  044%=      5-min Rain = 0
KARS 100400Z 22009KT 11/M01 A2987 RMK A01 T01061010  RH  045%=      5-min Rain = 0
KARS 100405Z 22009KT 10/M01 A2987 RMK A01 T01031010  RH  046%=      5-min Rain = 0
KARS 100410Z 22010KT 10/M01 A2987 RMK A01 T01021009  RH  046%=      5-min Rain = 0
KARS 100415Z 21009KT 10/M01 A2987 RMK A01 T01021008  RH  047%=      5-min Rain = 0
KARS 100420Z 22010KT 10/M01 A2986 RMK A01 T00991007  RH  048%=      5-min Rain = 0
KARS 100425Z 22009KT 10/M01 A2986 RMK A01 T01011006  RH  048%=      5-min Rain = 0
KARS 100430Z 22010KT 11/M01 A2986 RMK A01 T01051005  RH  047%=      5-min Rain = 0
KARS 100435Z 22010KT 11/M00 A2986 RMK A01 T01071004  RH  047%=      5-min Rain = 0
KARS 100440Z 22010KT 11/M00 A2986 RMK A01 T01091004  RH  046%=      5-min Rain = 0
KARS 100445Z 22010KT 11/M00 A2986 RMK A01 T01091003  RH  046%=      5-min Rain = 0
KARS 100450Z 22010KT 11/M00 A2987 RMK A01 T01071003  RH  047%=      5-min Rain = 0
KARS 100455Z 23010KT 11/M00 A2987 RMK A01 T01081003  RH  047%=      5-min Rain = 0
KARS 100500Z 23010KT 11/M00 A2987 RMK A01 T01091003  RH  047%=      5-min Rain = 0
KARS 100505Z 24011KT 11/M00 A2987 RMK A01 T01091002  RH  047%=      5-min Rain = 0
KARS 100510Z 24011KT 11/M00 A2987 RMK A01 T01121001  RH  046%=      5-min Rain = 0
KARS 100515Z 24011KT 11/M00 A2987 RMK A01 T01141001  RH  046%=      5-min Rain = 0
KARS 100520Z 23011KT 11/00 A2987 RMK A01 T011400-0  RH  046%=      5-min Rain = 0
KARS 100525Z 23011KT 11/M00 A2988 RMK A01 T01121001  RH  046%=      5-min Rain = 0
KARS 100530Z 23011KT 11/M00 A2987 RMK A01 T01101001  RH  047%=      5-min Rain = 0
KARS 100535Z 23010KT 11/M00 A2987 RMK A01 T01071001  RH  047%=      5-min Rain = 0
KARS 100540Z 23010KT 11/M00 A2987 RMK A01 T01051002  RH  048%=      5-min Rain = 0
KARS 100545Z 23010KT 10/M00 A2987 RMK A01 T01031002  RH  049%=      5-min Rain = 0
KARS 100550Z 22010KT 10/M00 A2987 RMK A01 T01021002  RH  049%=      5-min Rain = 0
KARS 100555Z 23010KT 10/M00 A2986 RMK A01 T01031002  RH  049%=      5-min Rain = 0

Page generated in 0.0094 seconds.